Time;durP1;ratioP1;P1;durP2;ratioP2;P2;SDS_P1;SDS_P2;PMS_P1;PMS_P2;Temp;Humidity;BMP_temperature;BMP_pressure;BME280_temperature;BME280_humidity;BME280_pressure;Samples;Min_cycle;Max_cycle;Signal;HPM_P1;HPM_P2
2022/08/11 00:00:36;;;;;;;8.25;5.45;;;17.30;99.90;;;;;;5035021;28;20049;-70
2022/08/11 00:03:07;;;;;;;11.48;5.60;;;17.20;99.90;;;;;;5053850;28;20047;-70
2022/08/11 00:05:43;;;;;;;7.57;5.75;;;17.20;99.90;;;;;;5022180;28;20568;-71
2022/08/11 00:08:10;;;;;;;7.78;5.78;;;17.10;99.90;;;;;;5040095;28;20041;-70
2022/08/11 00:10:37;;;;;;;8.85;6.45;;;17.00;99.90;;;;;;5036105;28;20037;-70
2022/08/11 00:13:06;;;;;;;8.68;6.40;;;16.90;99.90;;;;;;5056205;28;20037;-70
2022/08/11 00:15:44;;;;;;;8.30;5.93;;;16.90;99.90;;;;;;5037095;28;20057;-70
2022/08/11 00:18:11;;;;;;;8.32;5.60;;;16.90;99.90;;;;;;5040630;28;20036;-70
2022/08/11 00:20:42;;;;;;;8.60;6.10;;;16.90;99.90;;;;;;5044601;28;20119;-70
2022/08/11 00:23:12;;;;;;;6.80;5.80;;;16.80;99.90;;;;;;5061225;28;20044;-70
2022/08/11 00:25:47;;;;;;;7.82;5.68;;;16.80;99.90;;;;;;5040983;28;20033;-69
2022/08/11 00:28:22;;;;;;;7.30;5.80;;;16.80;99.90;;;;;;5041717;28;20128;-70
2022/08/11 00:30:50;;;;;;;8.25;5.85;;;16.90;99.90;;;;;;5052914;28;20040;-70
2022/08/11 00:33:19;;;;;;;8.10;6.10;;;16.80;99.90;;;;;;5037783;28;20087;-70
2022/08/11 00:35:45;;;;;;;7.70;5.90;;;16.90;99.90;;;;;;5039745;28;20040;-70
2022/08/11 00:38:12;;;;;;;8.10;5.90;;;16.90;99.90;;;;;;5036589;28;20558;-70
2022/08/11 00:40:49;;;;;;;7.53;5.68;;;16.90;99.90;;;;;;5041405;28;20402;-70
2022/08/11 00:43:24;;;;;;;9.63;6.15;;;16.90;99.90;;;;;;5039834;28;20407;-70
2022/08/11 00:46:10;;;;;;;10.68;6.20;;;16.80;99.90;;;;;;5037347;28;20041;-70
2022/08/11 00:49:10;;;;;;;8.15;5.60;;;16.90;99.90;;;;;;5036982;28;20052;-70
2022/08/11 00:51:57;;;;;;;7.55;5.90;;;16.80;99.90;;;;;;5049461;28;20052;-70
2022/08/11 00:54:47;;;;;;;7.13;6.07;;;16.90;99.90;;;;;;5031799;28;20049;-70
2022/08/11 00:57:38;;;;;;;10.88;6.28;;;16.90;99.90;;;;;;5051154;28;20038;-70
2022/08/11 01:00:16;;;;;;;8.70;6.43;;;16.80;99.90;;;;;;5035403;28;20037;-70
2022/08/11 01:03:12;;;;;;;7.93;6.35;;;16.80;99.90;;;;;;5039607;28;20393;-70
2022/08/11 01:05:55;;;;;;;8.75;6.60;;;16.80;99.90;;;;;;5018868;28;20470;-69
2022/08/11 01:08:52;;;;;;;10.15;6.20;;;16.70;99.90;;;;;;5039465;28;20033;-69
2022/08/11 01:11:21;;;;;;;11.60;6.70;;;16.80;99.90;;;;;;5044128;28;20036;-70
2022/08/11 01:14:25;;;;;;;8.15;6.45;;;16.70;99.90;;;;;;5042250;28;20407;-69
2022/08/11 01:17:27;;;;;;;9.55;6.35;;;16.70;99.90;;;;;;5042848;28;21547;-69
2022/08/11 01:20:14;;;;;;;9.32;6.45;;;16.70;99.90;;;;;;5056437;28;20187;-69
2022/08/11 01:23:13;;;;;;;8.88;6.88;;;16.60;99.90;;;;;;5040911;28;20061;-70
2022/08/11 01:25:43;;;;;;;10.02;6.85;;;16.60;99.90;;;;;;5041553;28;20048;-70
2022/08/11 01:28:34;;;;;;;9.40;6.90;;;16.60;99.90;;;;;;5041278;28;20737;-70
2022/08/11 01:31:36;;;;;;;10.45;7.13;;;16.60;99.90;;;;;;5043442;28;21512;-70
2022/08/11 01:34:49;;;;;;;9.15;6.95;;;16.50;99.90;;;;;;5060398;28;20052;-70
2022/08/11 01:37:32;;;;;;;8.38;6.68;;;16.40;99.90;;;;;;5055554;28;20148;-70
2022/08/11 01:40:22;;;;;;;10.05;7.47;;;16.40;99.90;;;;;;5041998;28;20045;-70
2022/08/11 01:45:58;;;;;;;11.23;7.20;;;16.30;99.90;;;;;;5057995;28;20136;-70
2022/08/11 01:48:36;;;;;;;9.40;7.22;;;16.30;99.90;;;;;;5037641;28;20396;-71
2022/08/11 01:51:18;;;;;;;11.60;6.90;;;16.30;99.90;;;;;;5039964;28;20116;-70
2022/08/11 01:54:23;;;;;;;12.77;6.70;;;16.30;99.90;;;;;;5042811;28;20033;-70
2022/08/11 01:57:11;;;;;;;11.88;6.53;;;16.30;99.90;;;;;;5052973;28;20045;-70
2022/08/11 01:59:48;;;;;;;11.93;7.15;;;16.30;99.90;;;;;;5039798;28;20055;-70
2022/08/11 02:02:46;;;;;;;9.18;6.57;;;16.20;99.90;;;;;;5039581;28;20041;-70
2022/08/11 02:05:33;;;;;;;9.50;7.03;;;16.20;99.90;;;;;;5057705;28;20048;-70
2022/08/11 02:08:18;;;;;;;9.57;7.10;;;16.20;99.90;;;;;;5040319;28;20033;-70
2022/08/11 02:13:57;;;;;;;9.57;7.00;;;16.20;99.90;;;;;;5041455;28;20118;-69
2022/08/11 02:16:56;;;;;;;9.60;7.43;;;16.10;99.90;;;;;;5055568;28;20044;-70
2022/08/11 02:25:37;;;;;;;8.20;6.70;;;16.00;99.90;;;;;;5042899;28;20068;-69
2022/08/11 02:28:21;;;;;;;9.88;6.90;;;15.90;99.90;;;;;;5034886;28;20391;-69
2022/08/11 02:33:58;;;;;;;12.00;8.07;;;15.80;99.90;;;;;;5041789;28;20491;-69
2022/08/11 02:36:37;;;;;;;8.63;6.75;;;15.80;99.90;;;;;;5037370;28;20029;-69
2022/08/11 02:39:08;;;;;;;10.02;7.43;;;15.80;99.90;;;;;;5056019;28;20487;-70
2022/08/11 02:42:23;;;;;;;13.67;7.00;;;15.70;99.90;;;;;;5034743;28;20044;-69
2022/08/11 02:44:56;;;;;;;11.95;8.10;;;15.70;99.90;;;;;;5009392;28;20136;-69
2022/08/11 02:51:05;;;;;;;13.75;8.15;;;15.70;99.90;;;;;;5042721;28;20120;-68
2022/08/11 02:53:36;;;;;;;11.55;7.53;;;15.70;99.90;;;;;;5041612;28;20052;-68
2022/08/11 02:56:12;;;;;;;9.73;7.47;;;15.60;99.90;;;;;;5039424;28;20072;-68
2022/08/11 03:02:18;;;;;;;11.77;8.18;;;15.70;99.90;;;;;;5052169;28;20110;-68
2022/08/11 03:04:59;;;;;;;11.70;7.82;;;15.60;99.90;;;;;;5040166;28;20400;-68
2022/08/11 03:07:51;;;;;;;11.73;8.10;;;15.60;99.90;;;;;;5037719;28;20049;-68
2022/08/11 03:10:17;;;;;;;;;;;15.70;99.90;;;;;;5016175;28;20064;-68
2022/08/11 03:19:23;;;;;;;11.38;7.97;;;15.60;99.90;;;;;;5039388;28;20051;-68
2022/08/11 03:22:23;;;;;;;14.63;8.73;;;15.60;99.90;;;;;;5041514;28;20141;-68
2022/08/11 03:25:07;;;;;;;13.20;8.48;;;15.60;99.90;;;;;;5039426;28;20037;-68
2022/08/11 03:28:05;;;;;;;13.60;8.43;;;15.60;99.90;;;;;;5038506;28;20754;-68
2022/08/11 03:30:40;;;;;;;12.60;8.63;;;15.60;99.90;;;;;;5041864;28;20044;-68
2022/08/11 03:36:45;;;;;;;14.63;9.50;;;15.60;99.90;;;;;;5038714;28;21593;-68
2022/08/11 03:39:35;;;;;;;12.75;9.27;;;15.60;99.90;;;;;;5040080;28;21118;-68
2022/08/11 03:42:35;;;;;;;15.18;9.52;;;15.50;99.90;;;;;;5040533;28;20483;-68
2022/08/11 03:45:15;;;;;;;15.63;9.30;;;15.50;99.90;;;;;;5038320;28;20144;-68
2022/08/11 03:48:17;;;;;;;12.95;9.27;;;15.40;99.90;;;;;;5040940;28;20037;-68
2022/08/11 03:51:01;;;;;;;13.60;9.77;;;15.50;99.90;;;;;;5054321;28;20049;-68
2022/08/11 03:53:55;;;;;;;14.95;9.93;;;15.50;99.90;;;;;;5041947;28;20116;-68
2022/08/11 03:56:23;;;;;;;11.82;9.25;;;15.40;99.90;;;;;;5037505;28;21379;-68
2022/08/11 03:59:16;;;;;;;14.57;9.48;;;15.30;99.90;;;;;;5054340;28;20060;-68
2022/08/11 04:02:05;;;;;;;12.55;8.82;;;15.40;99.90;;;;;;5038560;28;20051;-68
2022/08/11 04:05:17;;;;;;;13.60;9.43;;;15.40;99.90;;;;;;5037875;28;20091;-68
2022/08/11 04:07:45;;;;;;;12.98;8.63;;;15.20;99.90;;;;;;5053759;28;20124;-68
2022/08/11 04:10:29;;;;;;;14.38;9.40;;;15.20;99.90;;;;;;5039753;28;20040;-68
2022/08/11 04:13:33;;;;;;;7.85;6.10;;;15.20;99.90;;;;;;5018185;28;20516;-68
2022/08/11 04:16:28;;;;;;;15.45;6.57;;;15.20;99.90;;;;;;5040957;28;20041;-68
2022/08/11 04:19:23;;;;;;;10.98;6.68;;;15.00;99.90;;;;;;5056112;28;20683;-68
2022/08/11 04:22:17;;;;;;;12.43;8.90;;;15.00;99.90;;;;;;5051983;28;20041;-68
2022/08/11 04:25:12;;;;;;;15.15;9.95;;;15.00;99.90;;;;;;5038357;28;20040;-68
2022/08/11 04:28:14;;;;;;;14.30;9.73;;;15.00;99.90;;;;;;5035726;28;20079;-68
2022/08/11 04:30:49;;;;;;;13.80;9.82;;;15.00;99.90;;;;;;4996856;28;20308;-68
2022/08/11 04:33:49;;;;;;;15.52;10.25;;;15.10;99.90;;;;;;5054027;28;20464;-68
2022/08/11 04:39:39;;;;;;;16.63;11.15;;;15.10;99.90;;;;;;5036722;28;21213;-67
2022/08/11 04:46:04;;;;;;;15.63;11.38;;;15.10;99.90;;;;;;5039201;28;20094;-68
2022/08/11 05:01:40;;;;;;;20.50;11.63;;;15.40;99.90;;;;;;5038143;28;20140;-68
2022/08/11 05:07:52;;;;;;;21.83;12.93;;;15.50;99.90;;;;;;5023093;28;20052;-68
2022/08/11 05:10:23;;;;;;;;;;;15.60;99.90;;;;;;5055216;28;20041;-68
2022/08/11 05:12:55;;;;;;;18.77;12.65;;;15.60;99.90;;;;;;5040527;28;19917;-68
2022/08/11 05:36:48;;;;;;;20.55;13.43;;;16.20;99.90;;;;;;5038103;28;20060;-70
2022/08/11 05:58:45;;;;;;;19.40;13.50;;;17.00;99.90;;;;;;5037689;28;20110;-70
2022/08/11 06:01:19;;;;;;;21.52;13.13;;;17.10;99.90;;;;;;5022338;28;20415;-71
2022/08/11 06:06:35;;;;;;;18.15;12.80;;;17.30;99.90;;;;;;5039024;28;20135;-69
2022/08/11 06:09:01;;;;;;;17.58;12.90;;;17.40;99.90;;;;;;5041962;28;20366;-70
2022/08/11 06:11:28;;;;;;;20.33;13.75;;;17.50;99.90;;;;;;5041900;28;20029;-70
2022/08/11 06:13:56;;;;;;;19.10;12.68;;;17.60;99.90;;;;;;5042037;28;20040;-70
2022/08/11 06:16:27;;;;;;;20.02;12.48;;;17.70;99.90;;;;;;5041142;28;20090;-70
2022/08/11 06:18:52;;;;;;;20.15;12.48;;;17.80;99.90;;;;;;5053891;28;20523;-70
2022/08/11 06:21:20;;;;;;;16.80;12.68;;;17.90;99.90;;;;;;5041460;28;21193;-69
2022/08/11 06:23:46;;;;;;;18.38;12.65;;;18.10;99.90;;;;;;5058117;28;20037;-70
2022/08/11 06:26:13;;;;;;;16.17;11.75;;;18.20;99.90;;;;;;5040688;28;20038;-71
2022/08/11 06:28:43;;;;;;;17.33;10.88;;;18.30;99.90;;;;;;5040668;28;20487;-71
2022/08/11 06:31:23;;;;;;;17.15;12.27;;;18.40;99.90;;;;;;5058309;28;20118;-71
2022/08/11 06:34:11;;;;;;;22.52;11.13;;;18.50;99.90;;;;;;5048299;28;20502;-70
2022/08/11 06:37:17;;;;;;;16.33;10.77;;;18.70;99.90;;;;;;5047338;28;20542;-72
2022/08/11 06:40:02;;;;;;;17.27;11.13;;;18.80;99.90;;;;;;5037268;28;20041;-71
2022/08/11 06:42:49;;;;;;;17.55;10.27;;;19.00;99.90;;;;;;5039244;28;20040;-71
2022/08/11 06:45:30;;;;;;;15.18;10.73;;;19.20;99.90;;;;;;5049462;28;20045;-71
2022/08/11 06:47:59;;;;;;;16.00;9.18;;;19.30;99.90;;;;;;5040314;28;20459;-71
2022/08/11 06:53:16;;;;;;;14.98;9.32;;;19.50;99.90;;;;;;5041801;28;20063;-70
2022/08/11 07:01:45;;;;;;;11.73;8.65;;;19.90;99.90;;;;;;5043150;28;20091;-69
2022/08/11 07:04:15;;;;;;;13.18;8.80;;;20.00;99.90;;;;;;5057628;28;20066;-70
2022/08/11 07:15:41;;;;;;;12.93;8.35;;;20.50;99.90;;;;;;5046992;28;20098;-70
2022/08/11 07:29:26;;;;;;;8.50;5.95;;;21.20;99.90;;;;;;5042034;28;20051;-70
2022/08/11 07:31:52;;;;;;;8.55;5.55;;;21.30;99.90;;;;;;5064987;28;20403;-69
2022/08/11 07:34:26;;;;;;;6.70;5.03;;;21.50;99.90;;;;;;5048655;28;20048;-71
2022/08/11 07:36:58;;;;;;;7.20;4.95;;;21.60;99.90;;;;;;5049571;28;20388;-68
2022/08/11 07:39:27;;;;;;;6.77;4.90;;;21.80;99.90;;;;;;5040989;28;20073;-69
2022/08/11 07:41:57;;;;;;;8.32;5.13;;;21.90;99.90;;;;;;5045975;28;20049;-69
2022/08/11 07:44:30;;;;;;;7.50;4.75;;;22.00;99.90;;;;;;5047298;28;20106;-69
2022/08/11 07:52:33;;;;;;;8.05;4.20;;;22.30;99.90;;;;;;5059448;28;20048;-69
2022/08/11 07:55:10;;;;;;;9.63;4.32;;;22.40;99.90;;;;;;5064696;28;20040;-69
2022/08/11 08:19:43;;;;;;;5.25;3.10;;;23.60;99.90;;;;;;5045779;28;20132;-70
2022/08/11 08:22:10;;;;;;;4.78;3.17;;;23.70;99.90;;;;;;5048166;28;20059;-69
2022/08/11 08:24:38;;;;;;;6.63;3.00;;;23.80;99.90;;;;;;5048661;28;20045;-70
2022/08/11 08:27:04;;;;;;;5.13;2.78;;;23.90;99.90;;;;;;5044375;28;20041;-70
2022/08/11 08:32:21;;;;;;;6.00;3.20;;;24.10;99.90;;;;;;5045081;28;20063;-70
2022/08/11 08:34:51;;;;;;;6.97;3.03;;;24.20;99.90;;;;;;5042969;28;20045;-70
2022/08/11 08:37:19;;;;;;;7.65;2.75;;;24.20;99.90;;;;;;5042552;28;20128;-69
2022/08/11 08:39:46;;;;;;;5.03;2.60;;;24.30;99.90;;;;;;5043104;28;20132;-70
2022/08/11 08:42:17;;;;;;;3.95;2.65;;;24.40;99.90;;;;;;5057330;28;20044;-69
2022/08/11 08:44:48;;;;;;;5.03;2.50;;;24.40;99.90;;;;;;5035282;28;20068;-70
2022/08/11 08:47:17;;;;;;;5.30;2.40;;;24.50;99.90;;;;;;5052075;28;20136;-71
2022/08/11 08:49:49;;;;;;;6.90;2.80;;;24.60;99.90;;;;;;5061176;28;20124;-71
2022/08/11 08:52:22;;;;;;;3.95;2.30;;;24.70;99.90;;;;;;5044657;28;20041;-70
2022/08/11 08:54:52;;;;;;;6.28;2.47;;;24.80;99.90;;;;;;5022200;28;20052;-70
2022/08/11 08:57:21;;;;;;;2.78;2.40;;;24.90;99.90;;;;;;5036442;28;20048;-71
2022/08/11 08:59:49;;;;;;;6.15;2.50;;;25.00;99.90;;;;;;5041990;28;20475;-70
2022/08/11 09:02:19;;;;;;;2.70;2.15;;;25.10;99.90;;;;;;5043508;28;20395;-70
2022/08/11 09:04:46;;;;;;;3.50;2.10;;;25.20;99.90;;;;;;5042097;28;20404;-71
2022/08/11 09:07:16;;;;;;;15.95;2.47;;;25.20;99.90;;;;;;5046216;28;20037;-71
2022/08/11 09:09:49;;;;;;;5.03;2.20;;;25.30;99.90;;;;;;5030785;28;20049;-71
2022/08/11 09:12:18;;;;;;;4.53;2.22;;;25.40;99.90;;;;;;5049961;28;20040;-69
2022/08/11 09:15:02;;;;;;;3.28;1.80;;;25.50;99.90;;;;;;5043044;28;20048;-69
2022/08/11 09:17:42;;;;;;;4.55;2.00;;;25.50;99.90;;;;;;5057260;28;20068;-69
2022/08/11 09:20:12;;;;;;;3.28;2.00;;;25.70;99.90;;;;;;5046394;28;20064;-70
2022/08/11 09:28:16;;;;;;;4.07;1.90;;;25.90;99.90;;;;;;5043597;28;20056;-68
2022/08/11 09:30:44;;;;;;;2.70;1.88;;;26.00;99.90;;;;;;5045843;28;20091;-68
2022/08/11 09:33:14;;;;;;;2.95;1.90;;;26.10;99.90;;;;;;5046277;28;20867;-68
2022/08/11 09:35:44;;;;;;;4.05;2.00;;;26.20;99.90;;;;;;5045316;28;20037;-68
2022/08/11 09:40:58;;;;;;;3.70;1.88;;;26.30;99.90;;;;;;5046337;28;20126;-68
2022/08/11 09:46:11;;;;;;;4.80;2.30;;;26.50;99.90;;;;;;5049639;28;20067;-69
2022/08/11 09:48:44;;;;;;;5.22;2.10;;;26.60;99.40;;;;;;5051561;28;20044;-69
2022/08/11 09:51:11;;;;;;;4.47;2.22;;;26.70;98.60;;;;;;5049933;28;20075;-69
2022/08/11 09:53:42;;;;;;;4.68;2.33;;;26.70;99.00;;;;;;5063260;28;20944;-69
2022/08/11 09:59:05;;;;;;;3.17;2.42;;;26.90;99.90;;;;;;5051472;28;20049;-68
2022/08/11 10:01:39;;;;;;;3.40;2.70;;;26.90;99.90;;;;;;5051575;28;20067;-69
2022/08/11 10:04:14;;;;;;;4.45;2.28;;;27.00;99.50;;;;;;5062599;28;20041;-69
2022/08/11 10:09:32;;;;;;;4.55;2.80;;;27.20;98.10;;;;;;5048918;28;20163;-67
2022/08/11 10:12:01;;;;;;;4.88;2.80;;;27.20;97.20;;;;;;5043913;28;20090;-68
2022/08/11 10:17:17;;;;;;;3.55;2.20;;;27.30;97.60;;;;;;5066432;28;20127;-69
2022/08/11 10:19:46;;;;;;;4.55;1.98;;;27.40;97.10;;;;;;5046908;28;20064;-68
2022/08/11 10:27:48;;;;;;;4.38;2.75;;;27.50;96.70;;;;;;5050278;28;20052;-68
2022/08/11 10:35:44;;;;;;;3.65;2.42;;;27.60;95.00;;;;;;5030586;28;20496;-69
2022/08/11 10:38:14;;;;;;;4.05;2.70;;;27.60;94.60;;;;;;5031130;28;20140;-67
2022/08/11 10:40:44;;;;;;;5.40;2.60;;;27.70;94.90;;;;;;5039579;28;20388;-68
2022/08/11 10:43:13;;;;;;;5.57;2.55;;;27.70;94.60;;;;;;5050954;28;20064;-69
2022/08/11 10:48:30;;;;;;;4.00;2.70;;;27.90;95.20;;;;;;5049758;28;20107;-67
2022/08/11 10:51:12;;;;;;;4.88;2.70;;;27.90;94.40;;;;;;5049994;28;20083;-68
2022/08/11 10:59:16;;;;;;;3.50;2.55;;;28.00;94.00;;;;;;5063712;28;20055;-68
2022/08/11 11:01:44;;;;;;;5.35;2.50;;;28.00;92.90;;;;;;5050759;28;20045;-70
2022/08/11 11:04:15;;;;;;;5.10;2.30;;;28.10;92.70;;;;;;5049861;28;20396;-69
2022/08/11 11:06:43;;;;;;;7.32;2.60;;;28.10;92.20;;;;;;5047973;28;20138;-69
2022/08/11 11:09:31;;;;;;;3.63;2.78;;;28.10;91.70;;;;;;5063966;28;20071;-69
2022/08/11 11:17:56;;;;;;;3.00;1.95;;;28.20;90.90;;;;;;5049543;28;20061;-69
2022/08/11 11:20:25;;;;;;;5.03;2.40;;;28.20;91.10;;;;;;5049600;28;20055;-69
2022/08/11 11:22:55;;;;;;;3.45;2.28;;;28.30;90.70;;;;;;5049503;28;20131;-68
2022/08/11 11:25:39;;;;;;;5.10;2.20;;;28.30;90.00;;;;;;5049369;28;20047;-69
2022/08/11 11:28:08;;;;;;;4.50;2.30;;;28.30;90.50;;;;;;5047288;28;20041;-69
2022/08/11 11:30:48;;;;;;;3.85;2.35;;;28.30;90.60;;;;;;5060408;28;20450;-68
2022/08/11 11:33:37;;;;;;;4.20;2.50;;;28.30;87.20;;;;;;5066133;28;20040;-67
2022/08/11 11:36:35;;;;;;;2.75;2.00;;;28.40;86.90;;;;;;5053566;28;20056;-69
2022/08/11 11:39:01;;;;;;;4.10;2.20;;;28.40;82.40;;;;;;5041051;28;20037;-68
2022/08/11 11:41:27;;;;;;;4.05;2.33;;;28.40;86.50;;;;;;5029294;28;20049;-69
2022/08/11 11:43:57;;;;;;;2.45;2.20;;;28.40;85.30;;;;;;5031294;28;20045;-69
2022/08/11 11:46:28;;;;;;;4.10;2.30;;;28.40;85.50;;;;;;5047711;28;20102;-69
2022/08/11 11:48:55;;;;;;;4.50;1.98;;;28.50;86.10;;;;;;5048550;28;20041;-68
2022/08/11 11:51:25;;;;;;;4.13;1.90;;;28.50;87.60;;;;;;5048914;28;20037;-68
2022/08/11 11:53:52;;;;;;;5.57;2.35;;;28.60;86.70;;;;;;5047895;28;20141;-67
2022/08/11 11:56:20;;;;;;;2.70;1.95;;;28.60;85.30;;;;;;5048055;28;20384;-69
2022/08/11 12:01:32;;;;;;;3.95;2.20;;;28.70;82.50;;;;;;5045700;28;20076;-69
2022/08/11 12:03:59;;;;;;;2.88;2.20;;;28.70;82.20;;;;;;5048868;28;20040;-68
2022/08/11 12:06:26;;;;;;;3.78;2.05;;;28.70;83.10;;;;;;5048692;28;20503;-68
2022/08/11 12:08:54;;;;;;;4.18;2.10;;;28.70;82.60;;;;;;5051146;28;20044;-68
2022/08/11 12:14:08;;;;;;;4.28;2.45;;;28.60;81.00;;;;;;5048158;28;20403;-68
2022/08/11 12:16:43;;;;;;;5.80;2.10;;;28.70;80.30;;;;;;5043789;28;20184;-68
2022/08/11 12:19:12;;;;;;;2.80;2.10;;;28.70;80.20;;;;;;5048595;28;20132;-68
2022/08/11 12:27:19;;;;;;;3.58;2.20;;;28.70;80.40;;;;;;5048530;28;20053;-68
2022/08/11 12:27:20;;;;;;;2.58;1.98;;;28.80;80.20;;;;;;5055904;28;20793;-68
2022/08/11 12:30:12;;;;;;;6.18;2.00;;;28.80;79.20;;;;;;5045324;28;20128;-69
2022/08/11 12:32:39;;;;;;;4.47;2.72;;;28.90;82.20;;;;;;5047122;28;20056;-68
2022/08/11 12:35:06;;;;;;;3.67;2.03;;;28.90;82.20;;;;;;5048128;28;20075;-69
2022/08/11 12:37:39;;;;;;;2.63;1.90;;;28.90;80.00;;;;;;5047411;28;20041;-69
2022/08/11 12:45:46;;;;;;;3.58;2.10;;;29.00;77.90;;;;;;5034485;28;20106;-69
2022/08/11 12:54:01;;;;;;;3.55;2.08;;;29.00;76.90;;;;;;5039260;28;20179;-68
2022/08/11 13:05:07;;;;;;;4.68;2.10;;;29.00;78.90;;;;;;5066464;28;20056;-67
2022/08/11 13:07:34;;;;;;;3.83;2.20;;;29.00;76.80;;;;;;5051566;28;20072;-69
2022/08/11 13:10:03;;;;;;;4.65;2.10;;;29.00;76.10;;;;;;5072017;28;20055;-70
2022/08/11 13:12:49;;;;;;;3.35;2.30;;;29.00;76.30;;;;;;5052979;28;20037;-70
2022/08/11 13:15:24;;;;;;;3.63;1.98;;;29.00;73.30;;;;;;5052212;28;20480;-69
2022/08/11 13:17:51;;;;;;;2.85;1.98;;;29.00;73.20;;;;;;5059904;28;20052;-69
2022/08/11 13:20:20;;;;;;;9.40;2.35;;;29.10;73.40;;;;;;5066305;28;20037;-70
2022/08/11 13:22:48;;;;;;;7.07;2.40;;;29.10;74.70;;;;;;5041181;28;20097;-69
2022/08/11 13:25:16;;;;;;;2.92;2.10;;;29.10;71.50;;;;;;5051505;28;20045;-69
2022/08/11 13:27:44;;;;;;;3.60;1.90;;;29.10;73.90;;;;;;5051576;28;20459;-68
2022/08/11 13:32:55;;;;;;;2.05;1.85;;;29.20;74.10;;;;;;5049059;28;20047;-69
2022/08/11 13:35:22;;;;;;;6.43;2.00;;;29.10;74.20;;;;;;5051285;28;20045;-69
2022/08/11 13:37:49;;;;;;;5.20;2.17;;;29.20;76.00;;;;;;5050580;28;20056;-68
2022/08/11 13:40:18;;;;;;;5.97;2.20;;;29.20;74.40;;;;;;5051401;28;20084;-69
2022/08/11 13:42:44;;;;;;;3.38;1.95;;;29.20;75.60;;;;;;5051654;28;20056;-69
2022/08/11 13:45:10;;;;;;;2.08;1.88;;;29.20;74.00;;;;;;5051584;28;20064;-68
2022/08/11 13:47:38;;;;;;;3.13;1.70;;;29.30;74.10;;;;;;5050530;28;20131;-69
2022/08/11 13:50:06;;;;;;;3.38;1.90;;;29.30;74.40;;;;;;5052798;28;20109;-68
2022/08/11 13:52:33;;;;;;;3.45;2.03;;;29.30;74.00;;;;;;5047282;28;20476;-69
2022/08/11 13:55:00;;;;;;;2.20;2.00;;;29.20;73.20;;;;;;5045514;28;20048;-68
2022/08/11 13:57:28;;;;;;;2.70;1.70;;;29.20;73.40;;;;;;5052045;28;20041;-69
2022/08/11 14:00:08;;;;;;;2.90;1.80;;;29.30;73.80;;;;;;5051221;28;20345;-69
2022/08/11 14:02:36;;;;;;;2.83;1.70;;;29.30;75.90;;;;;;5046445;28;20377;-68
2022/08/11 14:05:28;;;;;;;3.13;1.70;;;29.30;75.80;;;;;;5050795;28;20053;-70
2022/08/11 14:08:03;;;;;;;2.75;1.70;;;29.30;74.10;;;;;;5045539;28;20506;-71
2022/08/11 14:10:31;;;;;;;3.90;1.92;;;29.30;74.50;;;;;;5050116;28;20119;-69
2022/08/11 14:15:48;;;;;;;2.30;1.70;;;29.30;73.40;;;;;;5045597;28;20523;-71
2022/08/11 14:18:28;;;;;;;2.85;1.80;;;29.30;72.30;;;;;;5062225;28;20051;-67
2022/08/11 14:23:45;;;;;;;3.10;2.03;;;29.20;72.90;;;;;;5062465;28;20055;-68
2022/08/11 14:26:22;;;;;;;6.35;1.83;;;29.30;72.60;;;;;;5044534;28;20225;-69
2022/08/11 14:28:52;;;;;;;3.20;1.70;;;29.30;73.80;;;;;;5046287;28;20091;-69
2022/08/11 14:31:18;;;;;;;1.98;1.77;;;29.30;74.00;;;;;;5046995;28;20471;-70
2022/08/11 14:33:45;;;;;;;4.07;2.00;;;29.30;72.70;;;;;;5043965;28;20044;-69
2022/08/11 14:36:11;;;;;;;2.25;1.70;;;29.40;73.30;;;;;;5043723;28;20040;-69
2022/08/11 14:38:39;;;;;;;2.70;1.77;;;29.30;73.90;;;;;;5030544;28;20080;-72
2022/08/11 14:49:26;;;;;;;4.18;2.45;;;29.40;70.20;;;;;;5046988;28;20056;-68
2022/08/11 14:51:55;;;;;;;5.20;1.85;;;29.40;70.70;;;;;;5058548;28;20053;-70
2022/08/11 14:57:09;;;;;;;3.45;2.00;;;29.40;70.50;;;;;;5043115;28;20090;-70
2022/08/11 14:59:36;;;;;;;3.88;1.95;;;29.50;70.50;;;;;;5047228;28;20068;-70
2022/08/11 15:04:49;;;;;;;5.70;1.80;;;29.50;71.60;;;;;;5046852;28;20071;-69
2022/08/11 15:07:15;;;;;;;4.35;1.80;;;29.50;70.70;;;;;;5048205;28;20574;-68
2022/08/11 15:09:43;;;;;;;3.33;1.90;;;29.50;71.70;;;;;;5054600;28;20136;-68
2022/08/11 15:12:16;;;;;;;5.07;2.00;;;29.40;71.40;;;;;;5050887;28;20037;-69
2022/08/11 15:17:32;;;;;;;3.03;1.98;;;29.50;69.90;;;;;;5033757;28;20047;-68
2022/08/11 15:25:33;;;;;;;3.80;1.80;;;29.50;71.70;;;;;;5051297;28;20098;-68
2022/08/11 15:39:17;;;;;;;4.70;2.08;;;29.60;71.80;;;;;;5050117;28;20514;-69
2022/08/11 15:47:35;;;;;;;6.00;2.10;;;29.70;70.20;;;;;;5043276;28;20144;-68
2022/08/11 15:50:04;;;;;;;4.22;1.83;;;29.70;70.30;;;;;;5050055;28;20037;-68
2022/08/11 15:52:34;;;;;;;4.80;2.00;;;29.60;71.20;;;;;;5050175;28;20087;-67
2022/08/11 15:55:01;;;;;;;2.75;1.95;;;29.70;71.90;;;;;;5049139;28;20040;-69
2022/08/11 16:05:49;;;;;;;9.27;2.10;;;29.70;70.90;;;;;;5032947;28;20123;-68
2022/08/11 16:08:19;;;;;;;4.53;2.00;;;29.60;70.20;;;;;;5048604;28;20488;-70
2022/08/11 16:10:45;;;;;;;4.05;1.98;;;29.60;69.40;;;;;;5045126;28;20071;-69
2022/08/11 16:18:41;;;;;;;3.88;2.00;;;29.50;71.00;;;;;;5046304;28;20074;-67
2022/08/11 16:21:12;;;;;;;5.93;2.20;;;29.50;70.30;;;;;;5046543;28;20074;-68
2022/08/11 16:23:39;;;;;;;;;;;29.50;69.70;;;;;;5047250;28;20052;-68
2022/08/11 16:26:07;;;;;;;4.03;2.00;;;29.60;70.60;;;;;;5044914;28;19948;-68
2022/08/11 16:28:35;;;;;;;4.28;1.90;;;29.60;70.60;;;;;;5045692;28;20056;-70
2022/08/11 16:31:01;;;;;;;5.10;1.80;;;29.60;69.30;;;;;;5044459;28;20170;-68
2022/08/11 16:33:29;;;;;;;3.28;2.03;;;29.70;67.60;;;;;;5062206;28;20036;-69
2022/08/11 16:38:41;;;;;;;5.40;1.60;;;29.80;67.60;;;;;;5044407;28;20128;-69
2022/08/11 16:41:11;;;;;;;2.97;1.85;;;29.70;67.80;;;;;;5045694;28;20048;-69
2022/08/11 16:47:07;;;;;;;2.42;1.70;;;29.90;67.00;;;;;;5039621;28;20072;-69
2022/08/11 16:49:32;;;;;;;2.50;1.55;;;29.80;68.00;;;;;;5040801;28;20064;-70
2022/08/11 16:52:02;;;;;;;5.78;1.95;;;29.60;67.90;;;;;;5039879;28;20385;-71
2022/08/11 16:54:30;;;;;;;2.45;1.73;;;29.50;67.90;;;;;;5039788;28;20037;-69
2022/08/11 16:59:12;;;;;;;3.45;1.83;;;29.40;68.00;;;;;;5054868;28;20131;-69
2022/08/11 16:59:43;;;;;;;4.97;1.65;;;29.20;68.00;;;;;;5059376;28;20052;-69
2022/08/11 17:13:36;;;;;;;2.55;1.70;;;28.90;69.50;;;;;;5041752;28;20396;-68
2022/08/11 17:16:08;;;;;;;4.13;1.63;;;28.70;69.60;;;;;;5043586;28;20036;-69
2022/08/11 17:18:44;;;;;;;3.28;2.20;;;28.70;70.50;;;;;;5053121;28;20492;-70
2022/08/11 17:21:25;;;;;;;3.55;1.70;;;28.60;70.90;;;;;;5044250;28;20040;-69
2022/08/11 17:24:03;;;;;;;2.90;1.95;;;28.70;71.70;;;;;;5045557;28;20049;-70
2022/08/11 17:26:55;;;;;;;3.97;2.13;;;28.80;72.50;;;;;;5039479;28;20443;-70
2022/08/11 17:29:39;;;;;;;10.50;2.53;;;28.80;72.30;;;;;;5047881;28;20041;-69
2022/08/11 17:38:15;;;;;;;5.50;2.15;;;28.30;73.60;;;;;;5042072;28;20091;-70
2022/08/11 17:49:06;;;;;;;5.93;2.78;;;27.70;75.40;;;;;;5054139;28;20059;-69
2022/08/11 17:59:55;;;;;;;5.20;2.38;;;27.20;77.40;;;;;;5052835;28;20458;-68
2022/08/11 18:05:32;;;;;;;4.50;2.80;;;27.00;79.20;;;;;;5052225;28;20511;-68
